Time;durP1;ratioP1;P1;durP2;ratioP2;P2;SDS_P1;SDS_P2;PMS_P1;PMS_P2;Temp;Humidity;BMP_temperature;BMP_pressure;BME280_temperature;BME280_humidity;BME280_pressure;Samples;Min_cycle;Max_cycle;Signal;HPM_P1;HPM_P2
2022/04/04 00:00:07;;;;;;;;;;;;;;;5.95;75.73;95399.03;5112013;28;1218;-49
2022/04/04 00:02:33;;;;;;;;;;;;;;;5.73;76.90;95401.75;5113603;28;1214;-48
2022/04/04 00:04:59;;;;;;;;;;;;;;;5.78;76.62;95402.22;5113373;28;1185;-48
2022/04/04 00:07:25;;;;;;;;;;;;;;;5.75;76.14;95400.66;5113530;28;1198;-49
2022/04/04 00:09:52;;;;;;;;;;;;;;;5.76;76.16;95396.19;5113308;28;1138;-48
2022/04/04 00:12:18;;;;;;;;;;;;;;;5.75;75.49;95400.66;5112668;28;1285;-49
2022/04/04 00:14:45;;;;;;;;;;;;;;;5.82;75.79;95395.69;5113331;28;1910;-49
2022/04/04 00:17:11;;;;;;;;;;;;;;;6.00;74.95;95404.81;5113304;28;1150;-48
2022/04/04 00:19:37;;;;;;;;;;;;;;;5.95;75.24;95403.47;5113398;28;1209;-49
2022/04/04 00:22:03;;;;;;;;;;;;;;;5.84;76.45;95414.97;5112040;28;1238;-49
2022/04/04 00:24:29;;;;;;;;;;;;;;;5.97;75.84;95412.19;5113080;28;1221;-48
2022/04/04 00:26:55;;;;;;;;;;;;;;;5.95;76.26;95412.31;5113144;28;1146;-49
2022/04/04 00:29:21;;;;;;;;;;;;;;;5.94;76.13;95407.09;5113779;28;1095;-49
2022/04/04 00:31:47;;;;;;;;;;;;;;;5.92;76.07;95406.38;5116747;28;1233;-48
2022/04/04 00:34:13;;;;;;;;;;;;;;;5.83;75.95;95405.34;5116282;28;1198;-49
2022/04/04 00:36:40;;;;;;;;;;;;;;;5.86;75.41;95413.03;5116860;27;1139;-48
2022/04/04 00:39:06;;;;;;;;;;;;;;;5.87;75.79;95415.56;5116689;28;1197;-49
2022/04/04 00:41:32;;;;;;;;;;;;;;;5.87;75.63;95414.72;5116635;28;1209;-49
2022/04/04 00:43:58;;;;;;;;;;;;;;;5.91;75.05;95410.84;5116168;28;1175;-49
2022/04/04 00:46:24;;;;;;;;;;;;;;;5.84;75.09;95409.66;5116643;28;1150;-48
2022/04/04 00:48:50;;;;;;;;;;;;;;;5.77;75.06;95403.19;5116231;28;1174;-49
2022/04/04 00:51:16;;;;;;;;;;;;;;;5.73;75.65;95413.22;5116810;28;1162;-49
2022/04/04 00:53:43;;;;;;;;;;;;;;;5.65;75.64;95419.16;5116733;28;1151;-49
2022/04/04 00:56:11;;;;;;;;;;;;;;;5.56;75.26;95411.06;5116553;28;1993;-49
2022/04/04 00:58:38;;;;;;;;;;;;;;;4.99;76.07;95408.50;5116091;28;1530;-49
2022/04/04 01:01:04;;;;;;;;;;;;;;;4.71;77.12;95404.50;5116560;28;1146;-49
2022/04/04 01:03:30;;;;;;;;;;;;;;;4.64;77.44;95408.59;5116149;28;1363;-49
2022/04/04 01:05:58;;;;;;;;;;;;;;;4.80;76.89;95413.53;5116323;28;1151;-49
2022/04/04 01:08:24;;;;;;;;;;;;;;;5.03;76.69;95415.25;5115261;28;1359;-49
2022/04/04 01:10:50;;;;;;;;;;;;;;;5.03;76.48;95414.41;5116058;28;1194;-48
2022/04/04 01:13:16;;;;;;;;;;;;;;;4.99;76.54;95424.41;5115706;28;1198;-49
2022/04/04 01:15:43;;;;;;;;;;;;;;;5.03;76.02;95414.41;5116324;28;1937;-49
2022/04/04 01:18:09;;;;;;;;;;;;;;;5.03;76.66;95425.84;5115691;27;1142;-49
2022/04/04 01:20:36;;;;;;;;;;;;;;;4.93;76.84;95424.03;5107883;28;1123;-48
2022/04/04 01:23:02;;;;;;;;;;;;;;;4.79;77.49;95422.47;5115816;28;1283;-49
2022/04/04 01:25:29;;;;;;;;;;;;;;;4.87;77.09;95428.84;5115953;28;1197;-48
2022/04/04 01:27:57;;;;;;;;;;;;;;;4.86;76.92;95421.88;5115624;28;1182;-49
2022/04/04 01:30:24;;;;;;;;;;;;;;;4.86;76.27;95419.22;5115793;28;1142;-49
2022/04/04 01:32:50;;;;;;;;;;;;;;;4.77;76.56;95419.94;5115884;28;1126;-49
2022/04/04 01:35:17;;;;;;;;;;;;;;;4.71;77.57;95415.13;5115643;28;1917;-48
2022/04/04 01:37:43;;;;;;;;;;;;;;;4.77;76.96;95417.28;5114497;28;1226;-48
2022/04/04 01:40:10;;;;;;;;;;;;;;;4.76;76.79;95410.31;5115013;27;1075;-48
2022/04/04 01:42:37;;;;;;;;;;;;;;;4.69;76.75;95406.44;5115324;28;1206;-49
2022/04/04 01:45:07;;;;;;;;;;;;;;;4.62;76.54;95400.75;5111071;28;1595;-49
2022/04/04 01:47:33;;;;;;;;;;;;;;;4.55;76.74;95398.72;5115588;28;1158;-48
2022/04/04 01:49:59;;;;;;;;;;;;;;;4.50;77.59;95404.38;5115468;27;1193;-48
2022/04/04 01:52:25;;;;;;;;;;;;;;;4.45;77.49;95399.41;5115381;28;1161;-49
2022/04/04 01:54:51;;;;;;;;;;;;;;;4.35;77.92;95403.72;5113721;28;1909;-48
2022/04/04 01:57:18;;;;;;;;;;;;;;;4.37;77.29;95401.81;5113991;28;2275;-48
2022/04/04 01:59:44;;;;;;;;;;;;;;;4.36;77.54;95396.63;5114629;28;1181;-48
2022/04/04 02:02:10;;;;;;;;;;;;;;;4.33;76.81;95403.00;5114314;28;1265;-48
2022/04/04 02:04:36;;;;;;;;;;;;;;;4.10;77.53;95399.47;5114293;28;1186;-48
2022/04/04 02:10:14;;;;;;;;;;;;;;;3.88;77.86;95406.34;5113166;28;1100;-49
2022/04/04 02:12:41;;;;;;;;;;;;;;;3.79;78.76;95401.72;5113417;28;1337;-48
2022/04/04 02:15:07;;;;;;;;;;;;;;;3.78;77.53;95405.34;5114718;28;1913;-49
2022/04/04 02:17:33;;;;;;;;;;;;;;;3.51;77.47;95408.22;5114810;28;1146;-49
2022/04/04 02:19:59;;;;;;;;;;;;;;;3.33;78.01;95403.28;5114745;28;1154;-49
2022/04/04 02:22:25;;;;;;;;;;;;;;;3.21;78.55;95398.91;5114852;28;1146;-49
2022/04/04 02:24:51;;;;;;;;;;;;;;;3.47;77.67;95399.66;5114109;28;1135;-49
2022/04/04 02:27:18;;;;;;;;;;;;;;;3.61;77.85;95398.66;5114872;28;1233;-49
2022/04/04 02:29:44;;;;;;;;;;;;;;;3.50;77.30;95374.81;5114482;28;1202;-49
2022/04/04 02:32:10;;;;;;;;;;;;;;;3.76;77.88;95398.50;5114876;28;1142;-49
2022/04/04 02:34:36;;;;;;;;;;;;;;;4.02;76.49;95401.81;5114356;28;1890;-49
2022/04/04 02:37:02;;;;;;;;;;;;;;;4.14;75.59;95405.38;5113235;28;1171;-49
2022/04/04 02:39:28;;;;;;;;;;;;;;;4.11;75.37;95412.56;5114133;28;1147;-49
2022/04/04 02:41:55;;;;;;;;;;;;;;;4.05;75.42;95413.03;5114157;28;1273;-49
2022/04/04 02:44:21;;;;;;;;;;;;;;;3.89;75.99;95415.16;5114166;28;1166;-48
2022/04/04 02:46:47;;;;;;;;;;;;;;;3.74;76.01;95417.13;5114199;28;1178;-48
2022/04/04 02:49:13;;;;;;;;;;;;;;;3.70;75.24;95413.84;5113810;28;1154;-49
2022/04/04 02:51:39;;;;;;;;;;;;;;;3.57;75.85;95421.00;5113470;28;1214;-49
2022/04/04 02:54:05;;;;;;;;;;;;;;;3.63;76.38;95427.63;5113439;28;1158;-49
2022/04/04 02:56:31;;;;;;;;;;;;;;;3.70;76.17;95427.06;5113902;28;1913;-48
2022/04/04 02:58:58;;;;;;;;;;;;;;;3.85;75.05;95424.22;5113982;28;1138;-49
2022/04/04 03:01:25;;;;;;;;;;;;;;;3.68;76.04;95412.25;5113988;28;1086;-49
2022/04/04 03:03:51;;;;;;;;;;;;;;;3.74;75.58;95416.25;5113839;28;1150;-48
2022/04/04 03:06:17;;;;;;;;;;;;;;;3.73;75.68;95412.75;5114070;28;1146;-48
2022/04/04 03:08:43;;;;;;;;;;;;;;;3.65;76.39;95417.78;5114133;28;1143;-49
2022/04/04 03:11:09;;;;;;;;;;;;;;;3.65;76.58;95404.56;5113655;28;1689;-49
2022/04/04 03:13:36;;;;;;;;;;;;;;;3.70;76.29;95403.28;5113420;28;1170;-49
2022/04/04 03:16:02;;;;;;;;;;;;;;;3.74;76.43;95403.03;5113667;28;1929;-49
2022/04/04 03:18:28;;;;;;;;;;;;;;;3.63;76.45;95404.66;5113907;28;1233;-49
2022/04/04 03:20:54;;;;;;;;;;;;;;;3.60;76.57;95402.25;5113545;28;1928;-49
2022/04/04 03:23:22;;;;;;;;;;;;;;;3.58;76.02;95413.91;5113918;28;1218;-48
2022/04/04 03:25:48;;;;;;;;;;;;;;;3.60;76.44;95417.28;5113451;28;1198;-49
2022/04/04 03:28:14;;;;;;;;;;;;;;;3.55;76.41;95414.97;5113805;28;1202;-49
2022/04/04 03:30:40;;;;;;;;;;;;;;;3.58;75.73;95430.59;5113485;28;1194;-49
2022/04/04 03:33:06;;;;;;;;;;;;;;;3.34;76.32;95422.66;5113389;28;1178;-49
2022/04/04 03:35:33;;;;;;;;;;;;;;;3.42;74.90;95430.88;5113330;28;1989;-49
2022/04/04 03:38:00;;;;;;;;;;;;;;;3.64;72.97;95432.81;5113446;28;1024;-49
2022/04/04 03:40:26;;;;;;;;;;;;;;;3.51;74.03;95435.50;5113513;28;1202;-49
2022/04/04 03:42:53;;;;;;;;;;;;;;;3.28;75.23;95438.94;5113477;28;1158;-49
2022/04/04 03:45:20;;;;;;;;;;;;;;;3.21;75.74;95435.91;5113309;28;1186;-49
2022/04/04 03:47:47;;;;;;;;;;;;;;;3.31;74.94;95433.44;5113309;28;1190;-48
2022/04/04 03:50:13;;;;;;;;;;;;;;;3.56;74.59;95437.78;5112427;28;1222;-49
2022/04/04 03:52:40;;;;;;;;;;;;;;;3.57;74.66;95442.16;5113225;28;1138;-48
2022/04/04 03:55:07;;;;;;;;;;;;;;;3.49;75.49;95436.53;5113447;28;1910;-49
2022/04/04 03:57:33;;;;;;;;;;;;;;;3.41;75.28;95437.09;5113439;28;1154;-49
2022/04/04 03:59:59;;;;;;;;;;;;;;;3.17;75.14;95449.41;5113220;28;1210;-49
2022/04/04 04:02:25;;;;;;;;;;;;;;;2.85;76.02;95447.28;5106594;28;1179;-49
2022/04/04 04:04:51;;;;;;;;;;;;;;;2.85;77.10;95450.75;5116763;28;1190;-49
2022/04/04 04:07:21;;;;;;;;;;;;;;;3.11;76.36;95448.06;5117144;28;1288;-49
2022/04/04 04:09:47;;;;;;;;;;;;;;;3.34;74.77;95449.09;5117836;28;1142;-48
2022/04/04 04:12:15;;;;;;;;;;;;;;;3.26;75.55;95457.56;5117167;28;1092;-49
2022/04/04 04:14:41;;;;;;;;;;;;;;;3.17;75.20;95458.22;5117415;28;1956;-49
2022/04/04 04:17:08;;;;;;;;;;;;;;;3.03;75.32;95461.81;5117141;28;1117;-49
2022/04/04 04:22:20;;;;;;;;;;;;;;;3.12;75.56;95476.19;5117178;28;1134;-49
2022/04/04 04:24:46;;;;;;;;;;;;;;;3.19;75.85;95472.16;5117537;28;1051;-49
2022/04/04 04:27:13;;;;;;;;;;;;;;;3.22;75.59;95481.66;5117124;28;1018;-49
2022/04/04 04:29:39;;;;;;;;;;;;;;;3.11;75.43;95485.03;5116804;28;1566;-49
2022/04/04 04:32:05;;;;;;;;;;;;;;;2.91;75.86;95492.56;5115208;28;1240;-49
2022/04/04 04:34:31;;;;;;;;;;;;;;;3.05;75.58;95496.06;5116837;28;1910;-49
2022/04/04 04:36:57;;;;;;;;;;;;;;;3.31;75.20;95503.00;5116345;28;1347;-49
2022/04/04 04:39:23;;;;;;;;;;;;;;;3.50;74.18;95499.88;5116910;28;1243;-48
2022/04/04 04:41:50;;;;;;;;;;;;;;;3.27;74.38;95500.69;5116140;28;1275;-49
2022/04/04 04:44:16;;;;;;;;;;;;;;;3.01;75.25;95498.06;5116685;28;1255;-49
2022/04/04 04:46:42;;;;;;;;;;;;;;;3.14;74.83;95495.41;5115698;28;1396;-49
2022/04/04 04:49:08;;;;;;;;;;;;;;;3.52;74.92;95497.16;5116205;28;1636;-50
2022/04/04 04:51:34;;;;;;;;;;;;;;;4.10;73.29;95495.56;5114390;28;1311;-49
2022/04/04 04:54:00;;;;;;;;;;;;;;;4.38;72.52;95492.66;5116381;28;1251;-49
2022/04/04 04:56:27;;;;;;;;;;;;;;;4.60;71.52;95490.09;5116110;28;1989;-49
2022/04/04 04:58:53;;;;;;;;;;;;;;;4.41;71.47;95493.28;5116409;28;1488;-48
2022/04/04 05:01:20;;;;;;;;;;;;;;;4.39;72.15;95504.94;5123269;27;1495;-49
2022/04/04 05:03:46;;;;;;;;;;;;;;;4.52;71.89;95508.38;5116271;28;949;-48
2022/04/04 05:06:12;;;;;;;;;;;;;;;4.74;71.34;95509.38;5116511;28;1036;-49
2022/04/04 05:08:38;;;;;;;;;;;;;;;4.81;70.08;95519.41;5116745;28;1043;-49
2022/04/04 05:11:04;;;;;;;;;;;;;;;4.84;69.85;95528.94;5116101;28;1032;-49
2022/04/04 05:13:30;;;;;;;;;;;;;;;4.92;69.66;95523.03;5114561;28;1088;-49
2022/04/04 05:15:56;;;;;;;;;;;;;;;4.97;69.93;95534.13;5114893;28;1913;-49
2022/04/04 05:18:22;;;;;;;;;;;;;;;5.07;69.90;95529.81;5116368;27;995;-49
2022/04/04 05:20:48;;;;;;;;;;;;;;;5.12;69.17;95527.63;5116047;28;1017;-48
2022/04/04 05:23:14;;;;;;;;;;;;;;;5.16;68.39;95534.41;5116089;28;984;-49
2022/04/04 05:25:40;;;;;;;;;;;;;;;5.20;68.58;95537.66;5116074;28;1040;-48
2022/04/04 05:28:07;;;;;;;;;;;;;;;5.28;69.16;95535.25;5115751;28;964;-49
2022/04/04 05:30:34;;;;;;;;;;;;;;;5.44;67.48;95545.50;5115962;28;1055;-48
2022/04/04 05:33:00;;;;;;;;;;;;;;;5.40;66.64;95536.09;5115881;27;964;-49
2022/04/04 05:35:26;;;;;;;;;;;;;;;5.48;65.67;95541.66;5115796;28;1986;-49
2022/04/04 05:37:55;;;;;;;;;;;;;;;5.57;66.00;95542.75;5115575;28;1039;-49
2022/04/04 05:40:22;;;;;;;;;;;;;;;5.78;66.10;95540.19;5115882;28;1025;-49
2022/04/04 05:42:49;;;;;;;;;;;;;;;6.00;63.72;95532.22;5115555;28;1004;-48
2022/04/04 05:45:15;;;;;;;;;;;;;;;5.99;63.20;95533.19;5115962;27;969;-48
2022/04/04 05:47:41;;;;;;;;;;;;;;;6.18;63.37;95535.19;5115712;28;1051;-49
2022/04/04 05:50:08;;;;;;;;;;;;;;;6.44;61.07;95537.53;5115835;28;973;-48
2022/04/04 05:52:35;;;;;;;;;;;;;;;6.26;61.48;95539.91;5115237;28;1220;-49
2022/04/04 05:55:01;;;;;;;;;;;;;;;6.52;63.10;95544.88;5115624;28;1909;-49
2022/04/04 05:57:29;;;;;;;;;;;;;;;6.77;62.35;95541.03;5115199;28;1115;-49
2022/04/04 05:59:55;;;;;;;;;;;;;;;6.76;61.84;95545.50;5115551;28;976;-49
2022/04/04 06:02:22;;;;;;;;;;;;;;;7.00;61.40;95547.06;5115371;28;969;-49
2022/04/04 06:04:49;;;;;;;;;;;;;;;7.16;59.72;95544.78;5115500;28;1027;-48
2022/04/04 06:07:15;;;;;;;;;;;;;;;7.37;58.76;95542.13;5114985;28;1003;-49
2022/04/04 06:09:41;;;;;;;;;;;;;;;7.42;58.09;95550.56;5115134;28;1087;-49
2022/04/04 06:12:08;;;;;;;;;;;;;;;7.46;58.29;95553.78;5114628;28;1234;-49
2022/04/04 06:14:34;;;;;;;;;;;;;;;7.74;57.56;95551.38;5115031;28;2004;-49
2022/04/04 06:17:01;;;;;;;;;;;;;;;7.77;58.20;95549.31;5114975;28;1106;-49
2022/04/04 06:19:28;;;;;;;;;;;;;;;7.77;58.78;95543.97;5115148;28;971;-49
2022/04/04 06:21:54;;;;;;;;;;;;;;;7.99;59.19;95550.09;5115114;28;972;-49
2022/04/04 06:24:20;;;;;;;;;;;;;;;8.29;58.77;95543.88;5114719;28;1023;-49
2022/04/04 06:26:46;;;;;;;;;;;;;;;8.01;58.49;95561.44;5114588;28;1032;-49
2022/04/04 06:29:12;;;;;;;;;;;;;;;8.12;58.90;95553.34;5114760;28;1856;-49
2022/04/04 06:31:38;;;;;;;;;;;;;;;8.33;58.86;95552.44;5115012;28;992;-49
2022/04/04 06:34:04;;;;;;;;;;;;;;;8.56;58.20;95556.53;5114691;28;948;-49
2022/04/04 06:36:31;;;;;;;;;;;;;;;8.59;58.11;95555.41;5114534;28;1905;-48
2022/04/04 06:38:57;;;;;;;;;;;;;;;8.63;57.30;95558.66;5114386;28;1088;-49
2022/04/04 06:41:23;;;;;;;;;;;;;;;9.03;57.80;95563.88;5114481;28;1028;-49
2022/04/04 06:43:50;;;;;;;;;;;;;;;9.33;56.74;95554.84;5114381;28;989;-49
2022/04/04 06:46:16;;;;;;;;;;;;;;;9.78;55.53;95566.66;5114502;28;1012;-49
2022/04/04 06:48:44;;;;;;;;;;;;;;;9.74;53.11;95567.94;5114630;28;1000;-49
2022/04/04 06:51:11;;;;;;;;;;;;;;;9.73;55.86;95566.22;5114344;28;1204;-49
2022/04/04 06:53:37;;;;;;;;;;;;;;;10.25;54.66;95571.91;5114211;28;1111;-49
2022/04/04 06:56:04;;;;;;;;;;;;;;;10.60;52.32;95570.31;5114379;28;1898;-49
2022/04/04 06:58:30;;;;;;;;;;;;;;;10.93;50.29;95578.69;5114419;28;994;-49
2022/04/04 07:00:57;;;;;;;;;;;;;;;10.86;50.76;95581.13;5114578;28;1188;-49
2022/04/04 07:03:23;;;;;;;;;;;;;;;10.69;51.17;95576.63;5114024;28;1123;-49
2022/04/04 07:05:49;;;;;;;;;;;;;;;11.47;50.07;95573.28;5114258;28;1034;-49
2022/04/04 07:08:15;;;;;;;;;;;;;;;12.66;47.22;95573.41;5113998;28;1869;-49
2022/04/04 07:10:41;;;;;;;;;;;;;;;12.73;47.20;95570.91;5114196;28;1055;-49
2022/04/04 07:13:07;;;;;;;;;;;;;;;12.68;47.19;95571.41;5113447;28;1242;-49
2022/04/04 07:15:33;;;;;;;;;;;;;;;12.18;45.42;95574.06;5114033;28;1910;-49
2022/04/04 07:17:59;;;;;;;;;;;;;;;11.96;48.83;95578.16;5114084;28;972;-49
2022/04/04 07:20:25;;;;;;;;;;;;;;;11.84;49.26;95581.06;5113774;28;948;-49
2022/04/04 07:22:51;;;;;;;;;;;;;;;12.28;47.40;95574.78;5113795;28;1208;-49
2022/04/04 07:25:17;;;;;;;;;;;;;;;12.17;47.17;95578.59;5113960;28;1079;-49
2022/04/04 07:27:45;;;;;;;;;;;;;;;11.82;46.55;95591.09;5114173;28;968;-49
2022/04/04 07:30:13;;;;;;;;;;;;;;;11.95;48.94;95589.84;5113580;28;1102;-49
2022/04/04 07:32:40;;;;;;;;;;;;;;;11.32;49.62;95584.56;5113765;28;1118;-49
2022/04/04 07:35:09;;;;;;;;;;;;;;;11.39;49.52;95589.28;5113375;28;1988;-49
2022/04/04 07:37:35;;;;;;;;;;;;;;;11.58;48.24;95586.41;5113901;28;972;-49
2022/04/04 07:40:02;;;;;;;;;;;;;;;11.84;49.23;95596.31;5113290;28;969;-49
2022/04/04 07:42:28;;;;;;;;;;;;;;;11.86;48.18;95594.31;5113519;28;1872;-49
2022/04/04 07:44:54;;;;;;;;;;;;;;;11.76;49.11;95591.75;5113613;28;1050;-49
2022/04/04 07:47:20;;;;;;;;;;;;;;;11.40;48.05;95590.97;5113794;28;976;-49
2022/04/04 07:49:46;;;;;;;;;;;;;;;11.08;49.65;95598.56;5113542;28;1019;-49
2022/04/04 07:52:12;;;;;;;;;;;;;;;11.02;48.95;95598.31;5112687;28;1224;-49
2022/04/04 07:54:38;;;;;;;;;;;;;;;11.16;47.89;95591.63;5113342;28;1906;-49
2022/04/04 07:57:04;;;;;;;;;;;;;;;11.55;47.11;95585.88;5113648;28;1074;-49
2022/04/04 07:59:30;;;;;;;;;;;;;;;11.90;49.09;95580.47;5113540;28;1130;-49
2022/04/04 08:01:56;;;;;;;;;;;;;;;12.09;47.78;95582.06;5113562;28;1073;-49
2022/04/04 08:04:23;;;;;;;;;;;;;;;12.20;47.09;95583.63;5113154;28;1034;-49
2022/04/04 08:06:49;;;;;;;;;;;;;;;12.27;47.42;95576.63;5113745;28;1003;-49
2022/04/04 08:09:14;;;;;;;;;;;;;;;12.38;46.43;95566.63;5113321;28;1007;-49
2022/04/04 08:11:41;;;;;;;;;;;;;;;12.19;47.55;95567.72;5113429;28;1098;-49
2022/04/04 08:14:10;;;;;;;;;;;;;;;11.80;47.67;95566.31;5112951;28;1211;-49
2022/04/04 08:16:36;;;;;;;;;;;;;;;11.53;48.91;95564.63;5113547;28;1913;-49
2022/04/04 08:19:02;;;;;;;;;;;;;;;11.42;50.25;95572.91;5113189;28;1170;-49
2022/04/04 08:21:29;;;;;;;;;;;;;;;11.12;48.66;95557.13;5113218;28;1013;-49
2022/04/04 08:23:55;;;;;;;;;;;;;;;11.11;51.04;95560.78;5113174;28;1024;-49
2022/04/04 08:26:21;;;;;;;;;;;;;;;10.73;52.38;95565.44;5113439;28;1044;-49
2022/04/04 08:28:47;;;;;;;;;;;;;;;10.67;51.81;95563.38;5113439;28;1035;-49
2022/04/04 08:31:13;;;;;;;;;;;;;;;10.77;51.78;95562.47;5113434;28;965;-49
2022/04/04 08:33:39;;;;;;;;;;;;;;;10.86;50.77;95559.72;5113536;28;1047;-49
2022/04/04 08:36:05;;;;;;;;;;;;;;;11.10;47.76;95552.94;5113067;28;1984;-49
2022/04/04 08:38:31;;;;;;;;;;;;;;;11.38;47.77;95548.28;5113417;28;1040;-49
2022/04/04 08:41:05;;;;;;;;;;;;;;;11.91;49.41;95541.97;5113213;28;980;-48
2022/04/04 08:43:35;;;;;;;;;;;;;;;12.58;48.72;95535.00;5113158;28;960;-49
2022/04/04 08:46:01;;;;;;;;;;;;;;;12.91;48.57;95532.38;5113031;28;995;-49
2022/04/04 08:48:30;;;;;;;;;;;;;;;12.69;46.29;95535.53;5113186;28;1176;-49
2022/04/04 08:50:57;;;;;;;;;;;;;;;12.03;46.92;95534.47;5114436;28;1306;-49
2022/04/04 08:53:23;;;;;;;;;;;;;;;12.47;46.95;95528.94;5117010;28;1019;-49
2022/04/04 08:55:49;;;;;;;;;;;;;;;11.72;46.84;95534.09;5115432;28;1914;-49
2022/04/04 08:58:15;;;;;;;;;;;;;;;11.37;48.06;95524.34;5116776;28;960;-48
2022/04/04 09:00:41;;;;;;;;;;;;;;;11.70;50.65;95522.72;5116453;28;1090;-49
2022/04/04 09:03:09;;;;;;;;;;;;;;;12.00;47.86;95517.88;5116462;28;1020;-49
2022/04/04 09:05:49;;;;;;;;;;;;;;;12.28;49.29;95527.34;5116117;28;1095;-49
2022/04/04 09:08:15;;;;;;;;;;;;;;;12.05;49.30;95512.88;5116702;28;960;-49
2022/04/04 09:10:43;;;;;;;;;;;;;;;12.10;47.55;95498.00;5116538;28;1015;-48
2022/04/04 09:13:09;;;;;;;;;;;;;;;12.59;47.63;95502.63;5115999;28;1096;-49
2022/04/04 09:16:08;;;;;;;;;;;;;;;12.77;45.93;95499.81;5116027;28;1921;-48
2022/04/04 09:18:37;;;;;;;;;;;;;;;13.13;46.98;95485.22;5071593;28;1466;-49
2022/04/04 09:21:04;;;;;;;;;;;;;;;13.30;47.84;95484.25;5116137;28;1064;-49
2022/04/04 09:23:33;;;;;;;;;;;;;;;13.50;46.21;95483.88;5116123;28;1020;-49
2022/04/04 09:26:00;;;;;;;;;;;;;;;13.54;45.88;95479.84;5115821;28;1114;-49
2022/04/04 09:28:26;;;;;;;;;;;;;;;13.30;46.20;95468.13;5116141;28;1051;-49
2022/04/04 09:31:07;;;;;;;;;;;;;;;13.62;48.51;95472.59;5115699;28;1047;-49
2022/04/04 09:33:40;;;;;;;;;;;;;;;13.85;44.67;95461.13;5116116;28;1051;-49
2022/04/04 09:36:06;;;;;;;;;;;;;;;13.89;46.65;95462.44;5115529;28;1914;-49
2022/04/04 09:38:34;;;;;;;;;;;;;;;13.98;46.08;95466.78;5116147;28;1043;-49
2022/04/04 09:41:15;;;;;;;;;;;;;;;14.10;45.97;95456.47;5115630;28;956;-49
2022/04/04 09:43:57;;;;;;;;;;;;;;;13.61;46.60;95462.03;5115562;28;992;-49
2022/04/04 09:46:29;;;;;;;;;;;;;;;13.59;46.72;95458.66;5115510;28;1267;-49
2022/04/04 09:49:02;;;;;;;;;;;;;;;13.57;45.30;95458.00;5115597;28;972;-49
2022/04/04 09:51:37;;;;;;;;;;;;;;;13.01;47.21;95436.41;5115678;28;1164;-50
2022/04/04 09:54:05;;;;;;;;;;;;;;;12.81;46.05;95435.94;5115690;28;1020;-49
2022/04/04 09:56:31;;;;;;;;;;;;;;;12.69;47.46;95438.09;5115235;28;1993;-50
2022/04/04 09:58:58;;;;;;;;;;;;;;;13.01;47.39;95429.22;5115658;28;965;-50
2022/04/04 10:01:25;;;;;;;;;;;;;;;13.34;46.72;95426.50;5114810;28;1115;-49
2022/04/04 10:03:52;;;;;;;;;;;;;;;13.43;47.44;95425.47;5115213;28;1145;-50
2022/04/04 10:06:19;;;;;;;;;;;;;;;13.61;47.06;95419.88;5115155;27;1035;-49
2022/04/04 10:08:46;;;;;;;;;;;;;;;13.93;46.40;95417.22;5115408;28;948;-49
2022/04/04 10:11:12;;;;;;;;;;;;;;;14.04;46.97;95406.09;5115231;28;964;-50
2022/04/04 10:13:39;;;;;;;;;;;;;;;14.13;45.91;95404.16;5114903;28;1874;-50
2022/04/04 10:16:05;;;;;;;;;;;;;;;13.69;46.43;95400.19;5115227;28;1987;-50
2022/04/04 10:18:32;;;;;;;;;;;;;;;13.72;46.26;95401.72;5114888;28;1048;-50
2022/04/04 10:20:58;;;;;;;;;;;;;;;13.74;44.84;95388.94;5115194;28;1054;-49
2022/04/04 10:23:25;;;;;;;;;;;;;;;13.74;46.59;95395.13;5115032;28;980;-50
2022/04/04 10:25:51;;;;;;;;;;;;;;;13.82;46.49;95391.56;5115010;27;952;-49
2022/04/04 10:28:50;;;;;;;;;;;;;;;13.58;46.02;95384.44;5114952;28;1023;-50
2022/04/04 10:31:18;;;;;;;;;;;;;;;13.40;46.45;95380.16;5080715;28;1303;-50
2022/04/04 10:33:45;;;;;;;;;;;;;;;13.32;47.81;95377.50;5114873;28;953;-49
2022/04/04 10:36:16;;;;;;;;;;;;;;;13.24;48.05;95367.59;5114921;28;1981;-49
2022/04/04 10:38:44;;;;;;;;;;;;;;;13.22;49.08;95366.06;5114821;28;980;-49
2022/04/04 10:41:13;;;;;;;;;;;;;;;13.04;46.33;95369.81;5114604;28;1052;-49
2022/04/04 10:43:40;;;;;;;;;;;;;;;12.94;46.82;95369.16;5114273;28;1047;-50
2022/04/04 10:46:13;;;;;;;;;;;;;;;12.85;48.04;95375.56;5114638;28;968;-50
2022/04/04 10:48:40;;;;;;;;;;;;;;;12.74;48.90;95363.31;5114262;28;1223;-49
2022/04/04 10:51:09;;;;;;;;;;;;;;;12.64;46.36;95365.34;5113401;28;1177;-49
2022/04/04 10:53:37;;;;;;;;;;;;;;;12.67;49.54;95367.66;5114174;27;1028;-49
2022/04/04 10:56:04;;;;;;;;;;;;;;;12.70;48.03;95364.66;5114222;28;1910;-50
2022/04/04 10:58:30;;;;;;;;;;;;;;;12.58;48.71;95361.50;5114087;27;996;-49
2022/04/04 11:00:56;;;;;;;;;;;;;;;12.62;49.41;95360.13;5114406;28;1061;-49
2022/04/04 11:03:29;;;;;;;;;;;;;;;12.74;48.52;95360.63;5114210;28;953;-49
2022/04/04 11:09:04;;;;;;;;;;;;;;;12.63;49.26;95353.75;5114118;28;1070;-50
2022/04/04 11:11:40;;;;;;;;;;;;;;;12.61;48.97;95355.78;5114084;28;1071;-49
2022/04/04 11:14:06;;;;;;;;;;;;;;;12.54;48.59;95349.44;5112748;28;1092;-49
2022/04/04 11:16:51;;;;;;;;;;;;;;;12.41;48.77;95349.09;5114005;28;1906;-49
2022/04/04 11:19:18;;;;;;;;;;;;;;;12.34;49.67;95338.19;5113719;28;1040;-49
2022/04/04 11:21:46;;;;;;;;;;;;;;;12.28;46.07;95342.38;5112697;28;1080;-49
2022/04/04 11:24:14;;;;;;;;;;;;;;;12.44;48.47;95333.47;5114005;27;1008;-49
2022/04/04 11:26:41;;;;;;;;;;;;;;;12.47;48.83;95333.16;5114119;28;948;-50
2022/04/04 11:29:10;;;;;;;;;;;;;;;12.37;49.07;95321.78;5113872;28;1140;-50
2022/04/04 11:31:47;;;;;;;;;;;;;;;12.45;48.75;95315.56;5112720;28;1029;-50
2022/04/04 11:34:14;;;;;;;;;;;;;;;12.52;48.91;95319.25;5113479;28;972;-50
2022/04/04 11:36:40;;;;;;;;;;;;;;;12.29;48.29;95319.06;5113629;28;1993;-49
2022/04/04 11:39:08;;;;;;;;;;;;;;;11.94;47.04;95310.34;5113797;28;1103;-49
2022/04/04 11:41:37;;;;;;;;;;;;;;;12.01;48.71;95300.66;5113863;28;1011;-50
2022/04/04 11:44:04;;;;;;;;;;;;;;;12.27;48.20;95305.88;5113367;28;1106;-49
2022/04/04 11:46:30;;;;;;;;;;;;;;;12.31;47.62;95306.34;5113680;28;1115;-49
2022/04/04 11:48:57;;;;;;;;;;;;;;;12.24;47.49;95300.81;5113561;28;964;-50
2022/04/04 11:51:26;;;;;;;;;;;;;;;12.42;48.60;95297.94;5113604;28;1212;-49
2022/04/04 11:54:02;;;;;;;;;;;;;;;12.49;47.05;95296.28;5113697;28;973;-50
2022/04/04 11:56:29;;;;;;;;;;;;;;;12.47;47.79;95298.28;5113724;28;1910;-50
2022/04/04 11:58:55;;;;;;;;;;;;;;;12.36;47.76;95297.81;5113592;28;987;-50
2022/04/04 12:01:31;;;;;;;;;;;;;;;12.24;49.42;95291.94;5113529;28;1028;-49
2022/04/04 12:03:58;;;;;;;;;;;;;;;12.46;48.79;95293.09;5113147;28;1032;-50
2022/04/04 12:06:24;;;;;;;;;;;;;;;12.52;49.18;95288.91;5113700;28;1007;-50
2022/04/04 12:08:50;;;;;;;;;;;;;;;12.63;49.10;95281.31;5113232;28;1035;-50
2022/04/04 12:11:25;;;;;;;;;;;;;;;12.59;47.57;95277.31;5113504;28;1047;-50
2022/04/04 12:13:56;;;;;;;;;;;;;;;12.67;46.36;95268.41;5112740;28;1095;-50
2022/04/04 12:16:23;;;;;;;;;;;;;;;12.41;47.29;95276.69;5113687;28;1914;-49
2022/04/04 12:19:08;;;;;;;;;;;;;;;12.38;47.51;95268.97;5113094;28;1032;-49
2022/04/04 12:21:34;;;;;;;;;;;;;;;12.54;46.59;95268.09;5113428;28;1051;-49
2022/04/04 12:26:45;;;;;;;;;;;;;;;12.68;46.84;95254.00;5117242;28;1044;-50
2022/04/04 12:29:11;;;;;;;;;;;;;;;12.72;45.78;95249.13;5117199;28;984;-50
2022/04/04 12:31:37;;;;;;;;;;;;;;;12.72;45.50;95247.28;5117251;28;1051;-50
2022/04/04 12:34:08;;;;;;;;;;;;;;;12.82;43.50;95239.03;5117037;27;956;-50
2022/04/04 12:36:38;;;;;;;;;;;;;;;12.80;45.29;95241.88;5117059;27;1906;-50
2022/04/04 12:39:11;;;;;;;;;;;;;;;12.97;46.23;95241.84;5117108;28;1014;-50
2022/04/04 12:41:55;;;;;;;;;;;;;;;12.95;44.82;95222.38;5115740;28;1004;-50
2022/04/04 12:44:22;;;;;;;;;;;;;;;12.93;46.43;95229.78;5116795;28;1111;-49
2022/04/04 12:46:49;;;;;;;;;;;;;;;13.03;47.45;95215.16;5116661;28;1106;-49
2022/04/04 12:49:15;;;;;;;;;;;;;;;13.02;47.25;95218.00;5116676;28;1047;-49
2022/04/04 12:51:51;;;;;;;;;;;;;;;13.14;46.17;95221.13;5117009;28;1161;-50
2022/04/04 12:54:25;;;;;;;;;;;;;;;13.20;46.21;95218.59;5116757;28;952;-49
2022/04/04 12:56:51;;;;;;;;;;;;;;;13.18;46.02;95220.59;5116717;28;1905;-50
2022/04/04 12:59:18;;;;;;;;;;;;;;;13.19;46.92;95224.97;5116802;28;965;-50
2022/04/04 13:01:59;;;;;;;;;;;;;;;13.12;45.30;95217.78;5116494;28;1071;-49
2022/04/04 13:04:25;;;;;;;;;;;;;;;12.92;44.98;95212.00;5116443;28;1960;-50
2022/04/04 13:06:51;;;;;;;;;;;;;;;12.94;47.04;95207.28;5116720;28;976;-50
2022/04/04 13:09:22;;;;;;;;;;;;;;;13.05;44.89;95220.31;5116430;28;971;-50
2022/04/04 13:11:48;;;;;;;;;;;;;;;12.93;46.25;95217.19;5116622;28;1023;-50
2022/04/04 13:14:14;;;;;;;;;;;;;;;13.02;45.06;95218.00;5116066;28;1190;-50
2022/04/04 13:16:42;;;;;;;;;;;;;;;12.96;41.66;95208.81;5116115;28;1909;-50